MMPR/PVR METAR and TAF weather

Enter ICAO airport designator
Station Type Date Time Source
MMPR METAR 2020/07/06 01:47 UTC NOAA

MMPR 060147Z 25005KT 10SM SCT020CB BKN090 OVC230 29/24 A2984 RMK 8/963 DSNT PCPN N


Station Type Date Time Source
MMPR Decoded METAR 2020/07/06 01:47 UTC NOAA

Puerto Vallarta / Lic, Mexico (MMPR) 20-41N 105-15W
Jul 05, 2020 - 09:47 PM EDT / 2020.07.06 0147 UTC
Wind: from the WSW (250 degrees) at 6 MPH (5 KT):0
Visibility: 10 mile(s):0
Sky conditions: overcast
Weather: Cumulonimbus clouds observed
Temperature: 84 F (29 C)
Dew Point: 75 F (24 C)
Relative Humidity: 74%
Pressure (altimeter): 29.84 in. Hg (1010 hPa)
ob: MMPR 060147Z 25005KT 10SM SCT020CB BKN090 OVC230 29/24 A2984 RMK 8/963 DSNT PCPN N
cycle: 2

Station Type Date Time Source
MMPR TAF 2020/07/05 18:57 UTC NOAA

TAF MMPR 051655Z 0518/0624 220006KT P6SM SCT020 TX32/0521Z TN26/0613Z
BECMG 0520/0521 25012KT SCT020CB BKN080
TEMPO 0522/0602 5SM TSRA BKN020CB
FM060300 29005KT P6SM SCT020 BKN080 PROB40 0603/0307 6SM -RA
FM060800 00000KT P6SM BKN020 BKN080
BECMG 0615/0616 22005KT SCT020 SCT080
FM062100 25012KT P6SM SCT020CB BKN080

Example: see airport list